sensor_id;sensor_type;location;lat;lon;timestamp;P1;durP1;ratioP1;P2;durP2;ratioP2
30048;SDS011;16879;50.852;15.602;2023-05-10T00:01:16;1.60;;;1.50;;
30048;SDS011;16879;50.852;15.602;2023-05-10T00:03:43;1.95;;;1.65;;
30048;SDS011;16879;50.852;15.602;2023-05-10T00:06:09;2.53;;;1.42;;
30048;SDS011;16879;50.852;15.602;2023-05-10T00:08:35;2.40;;;1.83;;
30048;SDS011;16879;50.852;15.602;2023-05-10T00:11:01;2.30;;;2.05;;
30048;SDS011;16879;50.852;15.602;2023-05-10T00:13:27;1.73;;;1.52;;
30048;SDS011;16879;50.852;15.602;2023-05-10T00:15:53;1.70;;;1.60;;
30048;SDS011;16879;50.852;15.602;2023-05-10T00:18:20;1.60;;;1.50;;
30048;SDS011;16879;50.852;15.602;2023-05-10T00:20:46;1.77;;;1.50;;
30048;SDS011;16879;50.852;15.602;2023-05-10T00:23:13;2.20;;;1.60;;
30048;SDS011;16879;50.852;15.602;2023-05-10T00:25:40;1.92;;;1.50;;
30048;SDS011;16879;50.852;15.602;2023-05-10T00:28:06;5.45;;;1.60;;
30048;SDS011;16879;50.852;15.602;2023-05-10T00:30:32;2.45;;;2.22;;
30048;SDS011;16879;50.852;15.602;2023-05-10T00:32:58;4.72;;;2.13;;
30048;SDS011;16879;50.852;15.602;2023-05-10T00:35:25;1.83;;;1.73;;
30048;SDS011;16879;50.852;15.602;2023-05-10T00:37:51;2.80;;;1.70;;
30048;SDS011;16879;50.852;15.602;2023-05-10T00:40:17;4.35;;;1.90;;
30048;SDS011;16879;50.852;15.602;2023-05-10T00:42:44;3.22;;;2.47;;
30048;SDS011;16879;50.852;15.602;2023-05-10T00:45:10;1.92;;;1.50;;
30048;SDS011;16879;50.852;15.602;2023-05-10T00:47:36;1.90;;;1.80;;
30048;SDS011;16879;50.852;15.602;2023-05-10T00:50:03;2.50;;;2.28;;
30048;SDS011;16879;50.852;15.602;2023-05-10T00:52:30;3.60;;;1.80;;
30048;SDS011;16879;50.852;15.602;2023-05-10T00:54:56;7.22;;;2.10;;
30048;SDS011;16879;50.852;15.602;2023-05-10T00:57:23;2.25;;;1.85;;
30048;SDS011;16879;50.852;15.602;2023-05-10T00:59:50;3.28;;;2.15;;
30048;SDS011;16879;50.852;15.602;2023-05-10T01:02:16;3.45;;;2.28;;
30048;SDS011;16879;50.852;15.602;2023-05-10T01:04:42;2.72;;;1.80;;
30048;SDS011;16879;50.852;15.602;2023-05-10T01:07:08;1.75;;;1.48;;
30048;SDS011;16879;50.852;15.602;2023-05-10T01:09:35;3.53;;;1.77;;
30048;SDS011;16879;50.852;15.602;2023-05-10T01:12:01;3.88;;;1.80;;
30048;SDS011;16879;50.852;15.602;2023-05-10T01:14:28;3.28;;;2.10;;
30048;SDS011;16879;50.852;15.602;2023-05-10T01:16:54;1.92;;;1.70;;
30048;SDS011;16879;50.852;15.602;2023-05-10T01:19:27;2.20;;;1.58;;
30048;SDS011;16879;50.852;15.602;2023-05-10T01:25:07;5.32;;;1.90;;
30048;SDS011;16879;50.852;15.602;2023-05-10T01:33:00;1.75;;;1.65;;
30048;SDS011;16879;50.852;15.602;2023-05-10T01:35:51;5.30;;;2.22;;
30048;SDS011;16879;50.852;15.602;2023-05-10T01:43:17;1.90;;;1.60;;
30048;SDS011;16879;50.852;15.602;2023-05-10T01:46:07;5.72;;;2.67;;
30048;SDS011;16879;50.852;15.602;2023-05-10T01:48:39;2.38;;;2.17;;
30048;SDS011;16879;50.852;15.602;2023-05-10T01:51:08;5.03;;;2.05;;
30048;SDS011;16879;50.852;15.602;2023-05-10T01:53:35;2.55;;;2.35;;
30048;SDS011;16879;50.852;15.602;2023-05-10T01:56:04;2.58;;;2.28;;
30048;SDS011;16879;50.852;15.602;2023-05-10T01:58:31;3.35;;;1.90;;
30048;SDS011;16879;50.852;15.602;2023-05-10T02:01:00;5.07;;;2.20;;
30048;SDS011;16879;50.852;15.602;2023-05-10T02:03:28;4.32;;;2.15;;
30048;SDS011;16879;50.852;15.602;2023-05-10T02:05:56;2.58;;;1.75;;
30048;SDS011;16879;50.852;15.602;2023-05-10T02:08:22;4.13;;;2.53;;
30048;SDS011;16879;50.852;15.602;2023-05-10T02:10:52;3.97;;;1.80;;
30048;SDS011;16879;50.852;15.602;2023-05-10T02:13:18;2.85;;;2.20;;
30048;SDS011;16879;50.852;15.602;2023-05-10T02:15:46;2.25;;;2.03;;
30048;SDS011;16879;50.852;15.602;2023-05-10T02:18:13;2.20;;;1.88;;
30048;SDS011;16879;50.852;15.602;2023-05-10T02:20:40;4.15;;;2.17;;
30048;SDS011;16879;50.852;15.602;2023-05-10T02:23:07;3.95;;;1.83;;
30048;SDS011;16879;50.852;15.602;2023-05-10T02:25:34;2.92;;;2.63;;
30048;SDS011;16879;50.852;15.602;2023-05-10T02:28:01;2.90;;;2.25;;
30048;SDS011;16879;50.852;15.602;2023-05-10T02:30:30;3.22;;;2.30;;
30048;SDS011;16879;50.852;15.602;2023-05-10T02:32:58;2.65;;;2.17;;
30048;SDS011;16879;50.852;15.602;2023-05-10T02:35:26;1.98;;;1.70;;
30048;SDS011;16879;50.852;15.602;2023-05-10T02:37:53;2.90;;;2.20;;
30048;SDS011;16879;50.852;15.602;2023-05-10T02:40:19;3.65;;;2.20;;
30048;SDS011;16879;50.852;15.602;2023-05-10T02:42:48;3.80;;;2.20;;
30048;SDS011;16879;50.852;15.602;2023-05-10T02:45:19;3.90;;;2.63;;
30048;SDS011;16879;50.852;15.602;2023-05-10T02:47:46;2.50;;;1.88;;
30048;SDS011;16879;50.852;15.602;2023-05-10T02:50:12;2.47;;;2.20;;
30048;SDS011;16879;50.852;15.602;2023-05-10T02:52:39;1.70;;;1.60;;
30048;SDS011;16879;50.852;15.602;2023-05-10T02:55:06;4.25;;;2.22;;
30048;SDS011;16879;50.852;15.602;2023-05-10T02:57:34;3.88;;;1.85;;
30048;SDS011;16879;50.852;15.602;2023-05-10T03:00:05;3.13;;;2.25;;
30048;SDS011;16879;50.852;15.602;2023-05-10T03:02:32;2.83;;;2.10;;
30048;SDS011;16879;50.852;15.602;2023-05-10T03:04:58;2.30;;;2.10;;
30048;SDS011;16879;50.852;15.602;2023-05-10T03:07:24;2.42;;;1.73;;
30048;SDS011;16879;50.852;15.602;2023-05-10T03:09:50;2.22;;;1.95;;
30048;SDS011;16879;50.852;15.602;2023-05-10T03:19:55;6.70;;;4.07;;
30048;SDS011;16879;50.852;15.602;2023-05-10T03:22:24;3.13;;;2.22;;
30048;SDS011;16879;50.852;15.602;2023-05-10T03:24:51;2.88;;;2.22;;
30048;SDS011;16879;50.852;15.602;2023-05-10T03:27:20;3.78;;;2.40;;
30048;SDS011;16879;50.852;15.602;2023-05-10T03:29:46;2.08;;;1.95;;
30048;SDS011;16879;50.852;15.602;2023-05-10T03:32:13;3.80;;;2.30;;
30048;SDS011;16879;50.852;15.602;2023-05-10T03:34:42;2.35;;;1.85;;
30048;SDS011;16879;50.852;15.602;2023-05-10T03:37:08;4.07;;;2.83;;
30048;SDS011;16879;50.852;15.602;2023-05-10T03:39:35;2.33;;;1.90;;
30048;SDS011;16879;50.852;15.602;2023-05-10T03:42:01;4.50;;;2.10;;
30048;SDS011;16879;50.852;15.602;2023-05-10T03:44:27;4.50;;;2.35;;
30048;SDS011;16879;50.852;15.602;2023-05-10T03:46:53;2.80;;;2.55;;
30048;SDS011;16879;50.852;15.602;2023-05-10T03:49:20;2.70;;;2.25;;
30048;SDS011;16879;50.852;15.602;2023-05-10T03:51:46;3.38;;;2.45;;
30048;SDS011;16879;50.852;15.602;2023-05-10T03:54:12;3.33;;;2.40;;
30048;SDS011;16879;50.852;15.602;2023-05-10T03:56:38;2.65;;;2.40;;
30048;SDS011;16879;50.852;15.602;2023-05-10T03:59:04;2.95;;;2.58;;
30048;SDS011;16879;50.852;15.602;2023-05-10T04:01:33;2.53;;;2.33;;
30048;SDS011;16879;50.852;15.602;2023-05-10T04:03:59;2.30;;;2.00;;
30048;SDS011;16879;50.852;15.602;2023-05-10T04:06:25;5.03;;;2.17;;
30048;SDS011;16879;50.852;15.602;2023-05-10T04:08:51;4.57;;;2.13;;
30048;SDS011;16879;50.852;15.602;2023-05-10T04:11:17;2.80;;;2.35;;
30048;SDS011;16879;50.852;15.602;2023-05-10T04:13:44;7.90;;;2.92;;
30048;SDS011;16879;50.852;15.602;2023-05-10T04:16:10;4.28;;;2.55;;
30048;SDS011;16879;50.852;15.602;2023-05-10T04:18:36;4.05;;;2.42;;
30048;SDS011;16879;50.852;15.602;2023-05-10T04:21:02;3.50;;;2.58;;
30048;SDS011;16879;50.852;15.602;2023-05-10T04:23:28;2.78;;;2.50;;
30048;SDS011;16879;50.852;15.602;2023-05-10T04:26:01;3.00;;;2.70;;
30048;SDS011;16879;50.852;15.602;2023-05-10T04:28:27;3.95;;;2.90;;
30048;SDS011;16879;50.852;15.602;2023-05-10T04:30:53;3.10;;;2.80;;
30048;SDS011;16879;50.852;15.602;2023-05-10T04:33:19;4.75;;;3.50;;
30048;SDS011;16879;50.852;15.602;2023-05-10T04:35:45;4.53;;;3.25;;
30048;SDS011;16879;50.852;15.602;2023-05-10T04:38:11;3.80;;;3.00;;
30048;SDS011;16879;50.852;15.602;2023-05-10T04:40:37;4.38;;;2.90;;
30048;SDS011;16879;50.852;15.602;2023-05-10T04:43:04;3.65;;;3.20;;
30048;SDS011;16879;50.852;15.602;2023-05-10T04:45:30;4.03;;;3.72;;
30048;SDS011;16879;50.852;15.602;2023-05-10T04:47:56;3.90;;;2.88;;
30048;SDS011;16879;50.852;15.602;2023-05-10T04:50:23;7.65;;;3.75;;
30048;SDS011;16879;50.852;15.602;2023-05-10T04:52:50;3.58;;;3.28;;
30048;SDS011;16879;50.852;15.602;2023-05-10T04:55:16;5.97;;;3.15;;
30048;SDS011;16879;50.852;15.602;2023-05-10T04:57:43;6.68;;;3.03;;
30048;SDS011;16879;50.852;15.602;2023-05-10T05:00:10;4.20;;;3.22;;
30048;SDS011;16879;50.852;15.602;2023-05-10T05:02:36;4.03;;;3.65;;
30048;SDS011;16879;50.852;15.602;2023-05-10T05:05:02;3.55;;;3.03;;
30048;SDS011;16879;50.852;15.602;2023-05-10T05:07:29;7.03;;;3.53;;
30048;SDS011;16879;50.852;15.602;2023-05-10T05:09:55;3.35;;;2.95;;
30048;SDS011;16879;50.852;15.602;2023-05-10T05:12:22;3.33;;;3.03;;
30048;SDS011;16879;50.852;15.602;2023-05-10T05:14:48;3.00;;;2.67;;
30048;SDS011;16879;50.852;15.602;2023-05-10T05:17:14;5.05;;;3.38;;
30048;SDS011;16879;50.852;15.602;2023-05-10T05:19:41;3.63;;;3.10;;
30048;SDS011;16879;50.852;15.602;2023-05-10T05:22:07;2.78;;;2.58;;
30048;SDS011;16879;50.852;15.602;2023-05-10T05:24:36;4.82;;;3.63;;
30048;SDS011;16879;50.852;15.602;2023-05-10T05:27:03;3.45;;;3.15;;
30048;SDS011;16879;50.852;15.602;2023-05-10T05:29:29;4.97;;;3.30;;
30048;SDS011;16879;50.852;15.602;2023-05-10T05:31:59;2.67;;;2.47;;
30048;SDS011;16879;50.852;15.602;2023-05-10T05:34:25;5.32;;;3.30;;
30048;SDS011;16879;50.852;15.602;2023-05-10T05:36:52;3.67;;;3.20;;
30048;SDS011;16879;50.852;15.602;2023-05-10T05:39:19;3.25;;;2.95;;
30048;SDS011;16879;50.852;15.602;2023-05-10T05:41:45;4.40;;;3.53;;
30048;SDS011;16879;50.852;15.602;2023-05-10T05:44:11;4.63;;;3.20;;
30048;SDS011;16879;50.852;15.602;2023-05-10T05:46:37;3.20;;;2.90;;
30048;SDS011;16879;50.852;15.602;2023-05-10T05:49:04;2.88;;;2.65;;
30048;SDS011;16879;50.852;15.602;2023-05-10T05:51:30;6.18;;;4.32;;
30048;SDS011;16879;50.852;15.602;2023-05-10T05:53:56;3.53;;;2.85;;
30048;SDS011;16879;50.852;15.602;2023-05-10T05:56:23;3.72;;;2.80;;
30048;SDS011;16879;50.852;15.602;2023-05-10T05:58:52;3.97;;;2.83;;
30048;SDS011;16879;50.852;15.602;2023-05-10T06:01:18;5.35;;;3.22;;
30048;SDS011;16879;50.852;15.602;2023-05-10T06:03:44;3.67;;;3.15;;
30048;SDS011;16879;50.852;15.602;2023-05-10T06:06:11;3.67;;;3.03;;
30048;SDS011;16879;50.852;15.602;2023-05-10T06:08:37;5.40;;;2.88;;
30048;SDS011;16879;50.852;15.602;2023-05-10T06:11:03;2.88;;;2.58;;
30048;SDS011;16879;50.852;15.602;2023-05-10T06:13:30;2.53;;;2.25;;
30048;SDS011;16879;50.852;15.602;2023-05-10T06:16:00;3.25;;;2.33;;
30048;SDS011;16879;50.852;15.602;2023-05-10T06:18:27;3.97;;;2.47;;
30048;SDS011;16879;50.852;15.602;2023-05-10T06:20:53;4.68;;;2.60;;
30048;SDS011;16879;50.852;15.602;2023-05-10T06:23:19;3.53;;;2.50;;
30048;SDS011;16879;50.852;15.602;2023-05-10T06:25:47;4.90;;;2.65;;
30048;SDS011;16879;50.852;15.602;2023-05-10T06:28:13;3.40;;;2.17;;
30048;SDS011;16879;50.852;15.602;2023-05-10T06:30:39;6.03;;;2.05;;
30048;SDS011;16879;50.852;15.602;2023-05-10T06:33:05;3.53;;;2.00;;
30048;SDS011;16879;50.852;15.602;2023-05-10T06:35:32;2.63;;;2.35;;
30048;SDS011;16879;50.852;15.602;2023-05-10T06:37:58;3.33;;;2.22;;
30048;SDS011;16879;50.852;15.602;2023-05-10T06:40:24;3.83;;;2.10;;
30048;SDS011;16879;50.852;15.602;2023-05-10T06:42:51;6.10;;;2.70;;
30048;SDS011;16879;50.852;15.602;2023-05-10T06:45:17;2.45;;;2.08;;
30048;SDS011;16879;50.852;15.602;2023-05-10T06:47:43;3.90;;;2.28;;
30048;SDS011;16879;50.852;15.602;2023-05-10T06:50:09;4.60;;;2.30;;
30048;SDS011;16879;50.852;15.602;2023-05-10T06:52:39;2.72;;;2.00;;
30048;SDS011;16879;50.852;15.602;2023-05-10T06:55:05;5.13;;;2.22;;
30048;SDS011;16879;50.852;15.602;2023-05-10T06:57:32;8.70;;;2.88;;
30048;SDS011;16879;50.852;15.602;2023-05-10T06:59:58;2.67;;;2.10;;
30048;SDS011;16879;50.852;15.602;2023-05-10T07:02:24;2.85;;;2.38;;
30048;SDS011;16879;50.852;15.602;2023-05-10T07:04:50;2.25;;;2.08;;
30048;SDS011;16879;50.852;15.602;2023-05-10T07:07:17;2.97;;;2.03;;
30048;SDS011;16879;50.852;15.602;2023-05-10T07:09:44;2.60;;;1.88;;
30048;SDS011;16879;50.852;15.602;2023-05-10T07:12:10;2.40;;;2.20;;
30048;SDS011;16879;50.852;15.602;2023-05-10T07:14:36;3.65;;;2.00;;
30048;SDS011;16879;50.852;15.602;2023-05-10T07:17:02;3.72;;;2.50;;
30048;SDS011;16879;50.852;15.602;2023-05-10T07:19:28;5.65;;;2.30;;
30048;SDS011;16879;50.852;15.602;2023-05-10T07:21:57;2.80;;;2.55;;
30048;SDS011;16879;50.852;15.602;2023-05-10T07:24:23;6.43;;;2.30;;
30048;SDS011;16879;50.852;15.602;2023-05-10T07:26:50;4.18;;;2.08;;
30048;SDS011;16879;50.852;15.602;2023-05-10T07:29:16;3.42;;;2.22;;
30048;SDS011;16879;50.852;15.602;2023-05-10T07:31:42;1.92;;;1.83;;
30048;SDS011;16879;50.852;15.602;2023-05-10T07:34:08;4.55;;;2.38;;
30048;SDS011;16879;50.852;15.602;2023-05-10T07:36:35;7.10;;;1.80;;
30048;SDS011;16879;50.852;15.602;2023-05-10T07:39:01;1.85;;;1.70;;
30048;SDS011;16879;50.852;15.602;2023-05-10T07:41:27;3.50;;;2.00;;
30048;SDS011;16879;50.852;15.602;2023-05-10T07:43:56;2.97;;;1.70;;
30048;SDS011;16879;50.852;15.602;2023-05-10T07:46:22;2.60;;;2.40;;
30048;SDS011;16879;50.852;15.602;2023-05-10T07:48:48;2.65;;;1.70;;
30048;SDS011;16879;50.852;15.602;2023-05-10T07:51:14;3.13;;;2.22;;
30048;SDS011;16879;50.852;15.602;2023-05-10T07:53:41;2.38;;;2.17;;
30048;SDS011;16879;50.852;15.602;2023-05-10T07:56:26;2.35;;;1.95;;
30048;SDS011;16879;50.852;15.602;2023-05-10T07:59:01;3.03;;;1.90;;
30048;SDS011;16879;50.852;15.602;2023-05-10T08:01:32;6.50;;;2.15;;
30048;SDS011;16879;50.852;15.602;2023-05-10T08:03:59;2.30;;;2.00;;
30048;SDS011;16879;50.852;15.602;2023-05-10T08:06:25;2.35;;;1.85;;
30048;SDS011;16879;50.852;15.602;2023-05-10T08:08:53;3.83;;;2.85;;
30048;SDS011;16879;50.852;15.602;2023-05-10T08:11:19;2.28;;;2.08;;
30048;SDS011;16879;50.852;15.602;2023-05-10T08:13:46;3.70;;;2.67;;
30048;SDS011;16879;50.852;15.602;2023-05-10T08:16:13;2.30;;;2.10;;
30048;SDS011;16879;50.852;15.602;2023-05-10T08:18:39;2.63;;;2.42;;
30048;SDS011;16879;50.852;15.602;2023-05-10T08:21:05;3.17;;;2.38;;
30048;SDS011;16879;50.852;15.602;2023-05-10T08:23:32;7.65;;;2.50;;
30048;SDS011;16879;50.852;15.602;2023-05-10T08:25:58;5.53;;;2.83;;
30048;SDS011;16879;50.852;15.602;2023-05-10T08:28:25;4.60;;;2.65;;
30048;SDS011;16879;50.852;15.602;2023-05-10T08:30:51;5.22;;;2.47;;
30048;SDS011;16879;50.852;15.602;2023-05-10T08:33:17;6.25;;;2.38;;
30048;SDS011;16879;50.852;15.602;2023-05-10T08:35:43;3.53;;;1.92;;
30048;SDS011;16879;50.852;15.602;2023-05-10T08:38:10;3.10;;;2.47;;
30048;SDS011;16879;50.852;15.602;2023-05-10T08:40:36;3.28;;;2.83;;
30048;SDS011;16879;50.852;15.602;2023-05-10T08:43:06;5.63;;;2.72;;
30048;SDS011;16879;50.852;15.602;2023-05-10T08:45:38;2.85;;;2.50;;
30048;SDS011;16879;50.852;15.602;2023-05-10T08:48:06;5.72;;;2.30;;
30048;SDS011;16879;50.852;15.602;2023-05-10T08:50:36;3.25;;;2.22;;
30048;SDS011;16879;50.852;15.602;2023-05-10T08:53:06;5.18;;;2.80;;
30048;SDS011;16879;50.852;15.602;2023-05-10T08:55:35;14.02;;;3.42;;
30048;SDS011;16879;50.852;15.602;2023-05-10T08:58:03;6.22;;;2.80;;
30048;SDS011;16879;50.852;15.602;2023-05-10T09:00:31;4.70;;;2.53;;
30048;SDS011;16879;50.852;15.602;2023-05-10T09:02:57;2.97;;;2.67;;
30048;SDS011;16879;50.852;15.602;2023-05-10T09:05:24;3.10;;;2.60;;
30048;SDS011;16879;50.852;15.602;2023-05-10T09:07:50;3.35;;;2.25;;
30048;SDS011;16879;50.852;15.602;2023-05-10T09:10:19;5.25;;;3.20;;
30048;SDS011;16879;50.852;15.602;2023-05-10T09:12:45;4.00;;;2.60;;
30048;SDS011;16879;50.852;15.602;2023-05-10T09:15:15;4.55;;;2.72;;
30048;SDS011;16879;50.852;15.602;2023-05-10T09:17:42;3.83;;;2.72;;
30048;SDS011;16879;50.852;15.602;2023-05-10T09:20:08;2.20;;;2.00;;
30048;SDS011;16879;50.852;15.602;2023-05-10T09:22:34;3.58;;;2.28;;
30048;SDS011;16879;50.852;15.602;2023-05-10T09:25:07;2.75;;;2.40;;
30048;SDS011;16879;50.852;15.602;2023-05-10T09:27:34;5.88;;;2.85;;
30048;SDS011;16879;50.852;15.602;2023-05-10T09:30:00;5.30;;;2.42;;
30048;SDS011;16879;50.852;15.602;2023-05-10T09:32:36;3.83;;;2.53;;
30048;SDS011;16879;50.852;15.602;2023-05-10T09:35:09;4.50;;;2.28;;
30048;SDS011;16879;50.852;15.602;2023-05-10T09:37:40;3.63;;;2.65;;
30048;SDS011;16879;50.852;15.602;2023-05-10T09:40:08;9.27;;;3.72;;
30048;SDS011;16879;50.852;15.602;2023-05-10T09:42:39;5.18;;;2.80;;
30048;SDS011;16879;50.852;15.602;2023-05-10T09:45:06;5.30;;;2.40;;
30048;SDS011;16879;50.852;15.602;2023-05-10T09:47:33;4.07;;;2.90;;
30048;SDS011;16879;50.852;15.602;2023-05-10T09:50:00;4.07;;;2.72;;
30048;SDS011;16879;50.852;15.602;2023-05-10T09:52:29;5.75;;;3.13;;
30048;SDS011;16879;50.852;15.602;2023-05-10T09:54:55;3.42;;;2.00;;
30048;SDS011;16879;50.852;15.602;2023-05-10T09:57:22;9.82;;;3.17;;
30048;SDS011;16879;50.852;15.602;2023-05-10T09:59:49;3.88;;;2.20;;
30048;SDS011;16879;50.852;15.602;2023-05-10T10:02:16;4.38;;;2.70;;
30048;SDS011;16879;50.852;15.602;2023-05-10T10:04:42;10.27;;;2.88;;
30048;SDS011;16879;50.852;15.602;2023-05-10T10:07:08;4.38;;;2.55;;
30048;SDS011;16879;50.852;15.602;2023-05-10T10:09:35;7.35;;;3.05;;
30048;SDS011;16879;50.852;15.602;2023-05-10T10:12:01;3.70;;;3.20;;
30048;SDS011;16879;50.852;15.602;2023-05-10T10:14:29;3.00;;;2.35;;
30048;SDS011;16879;50.852;15.602;2023-05-10T10:16:55;4.75;;;2.90;;
30048;SDS011;16879;50.852;15.602;2023-05-10T10:19:21;2.70;;;2.50;;
30048;SDS011;16879;50.852;15.602;2023-05-10T10:21:48;7.85;;;2.83;;
30048;SDS011;16879;50.852;15.602;2023-05-10T10:24:14;4.05;;;2.38;;
30048;SDS011;16879;50.852;15.602;2023-05-10T10:26:41;3.95;;;2.63;;
30048;SDS011;16879;50.852;15.602;2023-05-10T10:34:33;4.30;;;2.70;;
30048;SDS011;16879;50.852;15.602;2023-05-10T10:37:04;3.50;;;2.55;;
30048;SDS011;16879;50.852;15.602;2023-05-10T10:39:31;4.90;;;2.30;;
30048;SDS011;16879;50.852;15.602;2023-05-10T10:41:58;2.67;;;2.30;;
30048;SDS011;16879;50.852;15.602;2023-05-10T10:44:26;6.68;;;2.60;;
30048;SDS011;16879;50.852;15.602;2023-05-10T10:49:48;3.22;;;2.92;;
30048;SDS011;16879;50.852;15.602;2023-05-10T10:52:21;5.13;;;2.53;;
30048;SDS011;16879;50.852;15.602;2023-05-10T10:57:18;6.43;;;2.38;;
30048;SDS011;16879;50.852;15.602;2023-05-10T10:59:44;3.92;;;2.45;;
30048;SDS011;16879;50.852;15.602;2023-05-10T11:04:55;5.35;;;2.42;;
30048;SDS011;16879;50.852;15.602;2023-05-10T11:07:21;5.40;;;2.03;;
30048;SDS011;16879;50.852;15.602;2023-05-10T11:09:48;3.40;;;2.47;;
30048;SDS011;16879;50.852;15.602;2023-05-10T11:12:14;4.53;;;2.38;;
30048;SDS011;16879;50.852;15.602;2023-05-10T11:14:40;7.35;;;2.40;;
30048;SDS011;16879;50.852;15.602;2023-05-10T11:17:22;2.75;;;2.53;;
30048;SDS011;16879;50.852;15.602;2023-05-10T11:22:50;5.63;;;2.47;;
30048;SDS011;16879;50.852;15.602;2023-05-10T11:25:17;2.85;;;2.25;;
30048;SDS011;16879;50.852;15.602;2023-05-10T11:27:43;4.47;;;2.30;;
30048;SDS011;16879;50.852;15.602;2023-05-10T11:30:10;4.80;;;2.72;;
30048;SDS011;16879;50.852;15.602;2023-05-10T11:32:37;5.93;;;2.30;;
30048;SDS011;16879;50.852;15.602;2023-05-10T11:35:10;3.50;;;2.03;;
30048;SDS011;16879;50.852;15.602;2023-05-10T11:37:38;6.63;;;2.70;;
30048;SDS011;16879;50.852;15.602;2023-05-10T11:40:09;5.13;;;2.47;;
30048;SDS011;16879;50.852;15.602;2023-05-10T11:42:38;2.47;;;2.28;;
30048;SDS011;16879;50.852;15.602;2023-05-10T11:45:04;6.50;;;2.50;;
30048;SDS011;16879;50.852;15.602;2023-05-10T11:47:31;3.70;;;2.20;;
30048;SDS011;16879;50.852;15.602;2023-05-10T11:49:57;3.38;;;2.33;;
30048;SDS011;16879;50.852;15.602;2023-05-10T11:52:23;2.40;;;2.20;;
30048;SDS011;16879;50.852;15.602;2023-05-10T11:54:52;6.35;;;2.78;;
30048;SDS011;16879;50.852;15.602;2023-05-10T11:57:19;2.85;;;2.55;;
30048;SDS011;16879;50.852;15.602;2023-05-10T11:59:46;5.22;;;2.28;;
30048;SDS011;16879;50.852;15.602;2023-05-10T12:02:15;2.95;;;1.70;;
30048;SDS011;16879;50.852;15.602;2023-05-10T12:04:41;2.33;;;2.13;;
30048;SDS011;16879;50.852;15.602;2023-05-10T12:07:07;3.58;;;2.22;;
30048;SDS011;16879;50.852;15.602;2023-05-10T12:09:34;3.53;;;2.90;;
30048;SDS011;16879;50.852;15.602;2023-05-10T12:12:00;5.93;;;2.58;;
30048;SDS011;16879;50.852;15.602;2023-05-10T12:14:28;5.40;;;2.22;;
30048;SDS011;16879;50.852;15.602;2023-05-10T12:16:58;4.88;;;2.47;;
30048;SDS011;16879;50.852;15.602;2023-05-10T12:19:24;2.42;;;2.17;;
30048;SDS011;16879;50.852;15.602;2023-05-10T12:21:50;3.63;;;2.53;;
30048;SDS011;16879;50.852;15.602;2023-05-10T12:24:16;3.15;;;2.35;;
30048;SDS011;16879;50.852;15.602;2023-05-10T12:26:43;4.03;;;2.40;;
30048;SDS011;16879;50.852;15.602;2023-05-10T12:29:19;7.43;;;2.40;;
30048;SDS011;16879;50.852;15.602;2023-05-10T12:31:49;2.58;;;2.22;;
30048;SDS011;16879;50.852;15.602;2023-05-10T12:34:25;3.75;;;2.50;;
30048;SDS011;16879;50.852;15.602;2023-05-10T12:36:52;4.65;;;2.50;;
30048;SDS011;16879;50.852;15.602;2023-05-10T12:39:18;3.90;;;2.38;;
30048;SDS011;16879;50.852;15.602;2023-05-10T12:41:44;5.70;;;2.70;;
30048;SDS011;16879;50.852;15.602;2023-05-10T12:44:10;3.08;;;2.80;;
30048;SDS011;16879;50.852;15.602;2023-05-10T12:46:36;4.00;;;2.05;;
30048;SDS011;16879;50.852;15.602;2023-05-10T12:49:03;3.25;;;2.40;;
30048;SDS011;16879;50.852;15.602;2023-05-10T12:51:28;11.38;;;2.97;;
30048;SDS011;16879;50.852;15.602;2023-05-10T12:53:55;4.65;;;2.95;;
30048;SDS011;16879;50.852;15.602;2023-05-10T12:56:21;6.70;;;2.55;;
30048;SDS011;16879;50.852;15.602;2023-05-10T12:58:47;2.78;;;2.50;;
30048;SDS011;16879;50.852;15.602;2023-05-10T13:01:14;2.95;;;2.35;;
30048;SDS011;16879;50.852;15.602;2023-05-10T13:03:40;4.63;;;2.80;;
30048;SDS011;16879;50.852;15.602;2023-05-10T13:06:06;3.53;;;2.13;;
30048;SDS011;16879;50.852;15.602;2023-05-10T13:08:32;2.30;;;2.10;;
30048;SDS011;16879;50.852;15.602;2023-05-10T13:11:01;2.20;;;2.05;;
30048;SDS011;16879;50.852;15.602;2023-05-10T13:13:28;2.78;;;2.08;;
30048;SDS011;16879;50.852;15.602;2023-05-10T13:15:54;2.75;;;2.47;;
30048;SDS011;16879;50.852;15.602;2023-05-10T13:18:20;2.97;;;2.05;;
30048;SDS011;16879;50.852;15.602;2023-05-10T13:20:46;3.80;;;2.10;;
30048;SDS011;16879;50.852;15.602;2023-05-10T13:23:14;2.22;;;2.03;;
30048;SDS011;16879;50.852;15.602;2023-05-10T13:25:40;2.28;;;2.08;;
30048;SDS011;16879;50.852;15.602;2023-05-10T13:28:06;3.25;;;2.00;;
30048;SDS011;16879;50.852;15.602;2023-05-10T13:30:32;2.35;;;2.17;;
30048;SDS011;16879;50.852;15.602;2023-05-10T13:32:58;1.95;;;1.58;;
30048;SDS011;16879;50.852;15.602;2023-05-10T13:35:24;5.55;;;1.50;;
30048;SDS011;16879;50.852;15.602;2023-05-10T13:37:50;4.40;;;1.70;;
30048;SDS011;16879;50.852;15.602;2023-05-10T13:40:18;2.85;;;1.90;;
30048;SDS011;16879;50.852;15.602;2023-05-10T13:42:44;2.78;;;1.83;;
30048;SDS011;16879;50.852;15.602;2023-05-10T13:45:11;3.65;;;1.63;;
30048;SDS011;16879;50.852;15.602;2023-05-10T13:47:38;4.20;;;2.00;;
30048;SDS011;16879;50.852;15.602;2023-05-10T13:50:04;10.93;;;1.98;;
30048;SDS011;16879;50.852;15.602;2023-05-10T13:52:30;1.70;;;1.60;;
30048;SDS011;16879;50.852;15.602;2023-05-10T13:54:56;3.85;;;2.10;;
30048;SDS011;16879;50.852;15.602;2023-05-10T13:57:23;1.60;;;1.50;;
30048;SDS011;16879;50.852;15.602;2023-05-10T13:59:49;2.72;;;2.20;;
30048;SDS011;16879;50.852;15.602;2023-05-10T14:02:15;3.53;;;1.98;;
30048;SDS011;16879;50.852;15.602;2023-05-10T14:04:41;3.60;;;2.00;;
30048;SDS011;16879;50.852;15.602;2023-05-10T14:07:07;5.53;;;1.70;;
30048;SDS011;16879;50.852;15.602;2023-05-10T14:09:33;3.38;;;2.00;;
30048;SDS011;16879;50.852;15.602;2023-05-10T14:11:59;6.30;;;2.20;;
30048;SDS011;16879;50.852;15.602;2023-05-10T14:14:25;2.40;;;1.95;;
30048;SDS011;16879;50.852;15.602;2023-05-10T14:16:51;2.10;;;1.73;;
30048;SDS011;16879;50.852;15.602;2023-05-10T14:19:17;2.33;;;1.85;;
30048;SDS011;16879;50.852;15.602;2023-05-10T14:21:44;1.73;;;1.63;;
30048;SDS011;16879;50.852;15.602;2023-05-10T14:24:10;3.08;;;1.58;;
30048;SDS011;16879;50.852;15.602;2023-05-10T14:26:36;1.85;;;1.75;;
30048;SDS011;16879;50.852;15.602;2023-05-10T14:29:02;2.03;;;1.63;;
30048;SDS011;16879;50.852;15.602;2023-05-10T14:31:28;5.95;;;1.52;;
30048;SDS011;16879;50.852;15.602;2023-05-10T14:33:55;1.40;;;1.30;;
30048;SDS011;16879;50.852;15.602;2023-05-10T14:36:22;3.25;;;1.60;;
30048;SDS011;16879;50.852;15.602;2023-05-10T14:38:49;1.35;;;1.25;;
30048;SDS011;16879;50.852;15.602;2023-05-10T14:41:15;2.05;;;1.80;;
30048;SDS011;16879;50.852;15.602;2023-05-10T14:43:42;1.73;;;1.50;;
30048;SDS011;16879;50.852;15.602;2023-05-10T14:46:09;1.52;;;1.42;;
30048;SDS011;16879;50.852;15.602;2023-05-10T14:48:35;3.08;;;1.30;;
30048;SDS011;16879;50.852;15.602;2023-05-10T14:51:01;1.95;;;1.25;;
30048;SDS011;16879;50.852;15.602;2023-05-10T14:53:28;1.88;;;1.65;;
30048;SDS011;16879;50.852;15.602;2023-05-10T14:55:54;3.70;;;1.73;;
30048;SDS011;16879;50.852;15.602;2023-05-10T14:58:20;2.28;;;1.50;;
30048;SDS011;16879;50.852;15.602;2023-05-10T15:00:46;1.27;;;1.17;;
30048;SDS011;16879;50.852;15.602;2023-05-10T15:03:12;1.75;;;1.40;;
30048;SDS011;16879;50.852;15.602;2023-05-10T15:05:39;1.50;;;1.40;;
30048;SDS011;16879;50.852;15.602;2023-05-10T15:08:05;4.22;;;1.60;;
30048;SDS011;16879;50.852;15.602;2023-05-10T15:10:31;4.32;;;1.92;;